Time;durP1;ratioP1;P1;durP2;ratioP2;P2;SDS_P1;SDS_P2;PMS_P1;PMS_P2;Temp;Humidity;BMP_temperature;BMP_pressure;BME280_temperature;BME280_humidity;BME280_pressure;Samples;Min_cycle;Max_cycle;Signal;HPM_P1;HPM_P2
2022/03/04 00:00:22;;;;;;;2.27;2.13;;;;;;;;;;5118850;27;20685;-68
2022/03/04 00:03:11;;;;;;;2.00;1.90;;;;;;;;;;5119156;27;20686;-68
2022/03/04 00:05:58;;;;;;;3.37;2.23;;;;;;;;;;5122310;27;20214;-68
2022/03/04 00:08:45;;;;;;;2.00;1.90;;;;;;;;;;5116984;27;20696;-68
2022/03/04 00:11:32;;;;;;;2.43;2.33;;;;;;;;;;5121827;27;20295;-68
2022/03/04 00:14:19;;;;;;;2.13;1.93;;;;;;;;;;5118706;27;20207;-68
2022/03/04 00:17:08;;;;;;;2.60;2.03;;;;;;;;;;5117589;27;20212;-68
2022/03/04 00:19:55;;;;;;;2.10;1.90;;;;;;;;;;5121776;27;20295;-68
2022/03/04 00:22:42;;;;;;;1.97;1.87;;;;;;;;;;5122624;27;20202;-68
2022/03/04 00:25:29;;;;;;;2.50;1.90;;;;;;;;;;5118488;27;20214;-68
2022/03/04 00:28:16;;;;;;;1.80;1.70;;;;;;;;;;5120312;28;20237;-68
2022/03/04 00:31:03;;;;;;;1.90;1.80;;;;;;;;;;5119489;28;20227;-68
2022/03/04 00:33:51;;;;;;;1.87;1.77;;;;;;;;;;5116784;28;20299;-69
2022/03/04 00:36:40;;;;;;;1.80;1.70;;;;;;;;;;5120213;28;20271;-68
2022/03/04 00:39:27;;;;;;;2.43;2.23;;;;;;;;;;5121231;28;20293;-68
2022/03/04 00:42:14;;;;;;;1.90;1.80;;;;;;;;;;5120230;28;20696;-68
2022/03/04 00:45:01;;;;;;;2.13;1.93;;;;;;;;;;5119654;28;20228;-68
2022/03/04 00:47:48;;;;;;;1.80;1.70;;;;;;;;;;5121405;28;20285;-68
2022/03/04 00:50:36;;;;;;;1.90;1.80;;;;;;;;;;5119654;28;20227;-68
2022/03/04 00:53:23;;;;;;;1.73;1.63;;;;;;;;;;5120290;28;20282;-68
2022/03/04 00:56:11;;;;;;;2.00;1.90;;;;;;;;;;5118346;28;20207;-73
2022/03/04 00:58:58;;;;;;;1.37;1.30;;;;;;;;;;5116434;28;20200;-68
2022/03/04 01:01:45;;;;;;;1.53;1.43;;;;;;;;;;5119104;28;20248;-68
2022/03/04 01:04:32;;;;;;;1.53;1.43;;;;;;;;;;5121496;28;20303;-68
2022/03/04 01:07:20;;;;;;;1.27;1.27;;;;;;;;;;5120785;28;20236;-68
2022/03/04 01:10:07;;;;;;;1.40;1.30;;;;;;;;;;5119059;28;20224;-68
2022/03/04 01:12:54;;;;;;;1.67;1.57;;;;;;;;;;5117259;28;20297;-68
2022/03/04 01:15:41;;;;;;;1.80;1.70;;;;;;;;;;5121676;27;20243;-68
2022/03/04 01:18:29;;;;;;;2.03;1.83;;;;;;;;;;5120738;27;20306;-68
2022/03/04 01:21:15;;;;;;;2.33;1.73;;;;;;;;;;5121956;27;20273;-68
2022/03/04 01:24:04;;;;;;;1.67;1.57;;;;;;;;;;5127692;27;20231;-68
2022/03/04 01:26:51;;;;;;;1.70;1.60;;;;;;;;;;5122488;27;20792;-68
2022/03/04 01:29:38;;;;;;;1.90;1.50;;;;;;;;;;5120298;27;20720;-68
2022/03/04 01:32:25;;;;;;;1.93;1.40;;;;;;;;;;5121064;27;20698;-68
2022/03/04 01:35:13;;;;;;;1.70;1.60;;;;;;;;;;5125931;27;20742;-68
2022/03/04 01:38:01;;;;;;;1.17;1.17;;;;;;;;;;5123531;27;20214;-68
2022/03/04 01:40:49;;;;;;;1.20;1.10;;;;;;;;;;5123045;27;20279;-73
2022/03/04 01:43:36;;;;;;;1.57;1.47;;;;;;;;;;5122618;27;20216;-68
2022/03/04 01:46:28;;;;;;;1.30;1.30;;;;;;;;;;5121411;27;20230;-68
2022/03/04 01:49:15;;;;;;;1.40;1.40;;;;;;;;;;5123955;27;20683;-68
2022/03/04 01:52:02;;;;;;;1.33;1.23;;;;;;;;;;5121297;27;20297;-68
2022/03/04 01:54:49;;;;;;;1.30;1.20;;;;;;;;;;5121835;27;20235;-68
2022/03/04 01:57:38;;;;;;;1.53;1.43;;;;;;;;;;5121638;27;20686;-68
2022/03/04 02:00:26;;;;;;;1.53;1.43;;;;;;;;;;5122993;27;20742;-70
2022/03/04 02:03:12;;;;;;;1.50;1.40;;;;;;;;;;5125967;27;20640;-71
2022/03/04 02:05:59;;;;;;;1.30;1.30;;;;;;;;;;5125021;27;20203;-71
2022/03/04 02:08:46;;;;;;;1.27;1.27;;;;;;;;;;5122209;27;20242;-71
2022/03/04 02:11:33;;;;;;;1.43;1.33;;;;;;;;;;5122179;27;21146;-71
2022/03/04 02:14:22;;;;;;;2.10;1.40;;;;;;;;;;5125202;27;20218;-71
2022/03/04 02:17:09;;;;;;;1.93;1.30;;;;;;;;;;5121369;27;20686;-71
2022/03/04 02:19:56;;;;;;;1.50;1.40;;;;;;;;;;5122106;27;20207;-71
2022/03/04 02:22:45;;;;;;;1.30;1.20;;;;;;;;;;5123340;27;20457;-71
2022/03/04 02:25:32;;;;;;;1.13;1.00;;;;;;;;;;5119799;27;20291;-71
2022/03/04 02:28:20;;;;;;;1.13;1.00;;;;;;;;;;5119117;27;20329;-72
2022/03/04 02:31:07;;;;;;;1.27;1.17;;;;;;;;;;5123029;27;20223;-71
2022/03/04 02:33:54;;;;;;;1.20;1.20;;;;;;;;;;5125873;27;20330;-71
2022/03/04 02:36:41;;;;;;;1.27;1.17;;;;;;;;;;5124629;27;20681;-71
2022/03/04 02:39:30;;;;;;;1.40;1.30;;;;;;;;;;5121868;27;20211;-71
2022/03/04 02:42:17;;;;;;;1.17;1.17;;;;;;;;;;5116944;27;20762;-71
2022/03/04 02:45:04;;;;;;;0.70;0.70;;;;;;;;;;5119093;27;20750;-71
2022/03/04 02:47:51;;;;;;;1.10;1.00;;;;;;;;;;5121514;27;20262;-71
2022/03/04 02:50:38;;;;;;;1.10;1.10;;;;;;;;;;5122203;27;20274;-71
2022/03/04 02:53:25;;;;;;;1.33;1.23;;;;;;;;;;5123313;27;20238;-71
2022/03/04 02:56:13;;;;;;;0.90;0.90;;;;;;;;;;5122902;27;20571;-71
2022/03/04 02:59:00;;;;;;;1.20;1.20;;;;;;;;;;5122525;27;20207;-71
2022/03/04 03:01:47;;;;;;;1.17;1.10;;;;;;;;;;5114948;27;20212;-71
2022/03/04 03:04:34;;;;;;;1.20;1.20;;;;;;;;;;5119131;27;20268;-71
2022/03/04 03:07:21;;;;;;;1.00;1.00;;;;;;;;;;5120406;27;20208;-71
2022/03/04 03:10:10;;;;;;;1.00;1.00;;;;;;;;;;5120392;27;20720;-71
2022/03/04 03:12:58;;;;;;;1.10;1.10;;;;;;;;;;5117570;27;20205;-74
2022/03/04 03:15:48;;;;;;;0.90;0.90;;;;;;;;;;5119110;27;20208;-71
2022/03/04 03:18:36;;;;;;;0.93;0.93;;;;;;;;;;5121228;27;20305;-71
2022/03/04 03:21:23;;;;;;;1.10;1.10;;;;;;;;;;5124023;27;20246;-71
2022/03/04 03:24:10;;;;;;;1.00;1.00;;;;;;;;;;5118465;27;20220;-71
2022/03/04 03:26:57;;;;;;;0.97;0.97;;;;;;;;;;5120405;27;21153;-72
2022/03/04 03:29:45;;;;;;;1.30;1.20;;;;;;;;;;5121615;27;20681;-71
2022/03/04 03:32:32;;;;;;;0.80;0.80;;;;;;;;;;5120929;27;20219;-71
2022/03/04 03:35:19;;;;;;;0.80;0.80;;;;;;;;;;5119439;27;20198;-71
2022/03/04 03:38:06;;;;;;;1.30;1.20;;;;;;;;;;5120817;27;20267;-71
2022/03/04 03:40:53;;;;;;;1.17;1.17;;;;;;;;;;5118863;27;20291;-72
2022/03/04 03:43:40;;;;;;;0.97;0.97;;;;;;;;;;5120892;27;20215;-71
2022/03/04 03:46:29;;;;;;;0.60;0.60;;;;;;;;;;5120939;27;20235;-71
2022/03/04 03:49:16;;;;;;;1.03;1.03;;;;;;;;;;5120090;27;20212;-71
2022/03/04 03:52:03;;;;;;;0.80;0.80;;;;;;;;;;5114434;27;20242;-71
2022/03/04 03:54:50;;;;;;;0.90;0.90;;;;;;;;;;5119607;27;20302;-71
2022/03/04 03:57:37;;;;;;;1.17;1.10;;;;;;;;;;5120636;27;20547;-71
2022/03/04 04:00:24;;;;;;;0.70;0.70;;;;;;;;;;5115537;27;20331;-71
2022/03/04 04:03:13;;;;;;;0.90;0.90;;;;;;;;;;5120101;27;20210;-71
2022/03/04 04:06:00;;;;;;;0.93;0.93;;;;;;;;;;5118509;27;20336;-71
2022/03/04 04:08:46;;;;;;;1.33;1.23;;;;;;;;;;5120586;27;20291;-71
2022/03/04 04:11:35;;;;;;;0.70;0.70;;;;;;;;;;5119328;27;20270;-72
2022/03/04 04:14:22;;;;;;;1.23;1.13;;;;;;;;;;5119019;27;20581;-71
2022/03/04 04:17:08;;;;;;;0.97;0.97;;;;;;;;;;5117711;27;20211;-71
2022/03/04 04:19:57;;;;;;;0.90;0.90;;;;;;;;;;5120037;27;20214;-71
2022/03/04 04:22:44;;;;;;;1.20;1.00;;;;;;;;;;5116804;27;20659;-71
2022/03/04 04:25:31;;;;;;;1.00;1.00;;;;;;;;;;5120550;27;20234;-71
2022/03/04 04:28:18;;;;;;;1.00;1.00;;;;;;;;;;5119861;28;20654;-71
2022/03/04 04:31:05;;;;;;;0.70;0.70;;;;;;;;;;5120912;28;20684;-71
2022/03/04 04:33:52;;;;;;;0.97;0.97;;;;;;;;;;5119227;28;20206;-71
2022/03/04 04:36:40;;;;;;;0.97;0.97;;;;;;;;;;5118283;28;20288;-71
2022/03/04 04:39:27;;;;;;;0.90;0.90;;;;;;;;;;5122388;28;20203;-71
2022/03/04 04:42:14;;;;;;;0.97;0.97;;;;;;;;;;5120854;28;20238;-71
2022/03/04 04:45:01;;;;;;;1.10;1.10;;;;;;;;;;5116790;28;20774;-71
2022/03/04 04:47:48;;;;;;;1.40;1.30;;;;;;;;;;5117659;28;20232;-71
2022/03/04 04:50:35;;;;;;;0.80;0.80;;;;;;;;;;5121306;27;20378;-71
2022/03/04 04:53:23;;;;;;;1.23;1.23;;;;;;;;;;5123003;27;20269;-71
2022/03/04 04:56:10;;;;;;;1.20;1.20;;;;;;;;;;5125008;27;20207;-71
2022/03/04 04:58:57;;;;;;;1.80;1.70;;;;;;;;;;5118913;27;20292;-71
2022/03/04 05:01:44;;;;;;;1.50;1.40;;;;;;;;;;5121270;27;20294;-71
2022/03/04 05:04:31;;;;;;;1.27;1.20;;;;;;;;;;5123595;27;20667;-71
2022/03/04 05:07:18;;;;;;;1.60;1.50;;;;;;;;;;5123522;27;20687;-71
2022/03/04 05:10:07;;;;;;;1.50;1.40;;;;;;;;;;5123937;27;20722;-71
2022/03/04 05:12:54;;;;;;;1.87;1.77;;;;;;;;;;5124042;27;20296;-71
2022/03/04 05:15:41;;;;;;;1.80;1.70;;;;;;;;;;5123378;27;20215;-71
2022/03/04 05:18:28;;;;;;;1.70;1.60;;;;;;;;;;5122312;27;20284;-71
2022/03/04 05:21:15;;;;;;;1.70;1.60;;;;;;;;;;5120382;27;20249;-71
2022/03/04 05:24:02;;;;;;;1.70;1.60;;;;;;;;;;5123549;27;20294;-71
2022/03/04 05:26:50;;;;;;;1.77;1.67;;;;;;;;;;5121347;27;20211;-72
2022/03/04 05:29:37;;;;;;;1.90;1.70;;;;;;;;;;5122909;27;20301;-71
2022/03/04 05:32:24;;;;;;;1.90;1.80;;;;;;;;;;5125236;27;20260;-71
2022/03/04 05:35:11;;;;;;;2.17;1.57;;;;;;;;;;5121866;27;20698;-71
2022/03/04 05:37:58;;;;;;;1.50;1.40;;;;;;;;;;5124652;27;20389;-72
2022/03/04 05:40:45;;;;;;;1.73;1.63;;;;;;;;;;5125650;27;20299;-71
2022/03/04 05:43:34;;;;;;;1.40;1.30;;;;;;;;;;5124228;27;20245;-71
2022/03/04 05:46:20;;;;;;;1.67;1.60;;;;;;;;;;5121780;27;20336;-71
2022/03/04 05:49:07;;;;;;;1.43;1.33;;;;;;;;;;5121532;27;20222;-71
2022/03/04 05:51:54;;;;;;;1.33;1.23;;;;;;;;;;5120337;27;20258;-71
2022/03/04 05:54:41;;;;;;;1.93;1.83;;;;;;;;;;5123758;27;20236;-71
2022/03/04 05:57:28;;;;;;;1.47;1.47;;;;;;;;;;5119931;27;20678;-70
2022/03/04 06:00:17;;;;;;;1.90;1.80;;;;;;;;;;5119417;27;20656;-71
2022/03/04 06:03:04;;;;;;;2.17;2.07;;;;;;;;;;5124107;27;20203;-71
2022/03/04 06:05:51;;;;;;;2.30;2.10;;;;;;;;;;5122324;27;20291;-71
2022/03/04 06:08:38;;;;;;;3.47;2.80;;;;;;;;;;5124237;27;20219;-71
2022/03/04 06:11:25;;;;;;;3.33;3.03;;;;;;;;;;5119564;27;20230;-71
2022/03/04 06:14:12;;;;;;;3.70;3.33;;;;;;;;;;5122600;27;20293;-71
2022/03/04 06:17:00;;;;;;;4.30;3.90;;;;;;;;;;5120350;27;20211;-71
2022/03/04 06:19:47;;;;;;;4.87;4.30;;;;;;;;;;5120142;27;20666;-71
2022/03/04 06:22:35;;;;;;;5.37;4.87;;;;;;;;;;5123735;27;20234;-72
2022/03/04 06:25:22;;;;;;;6.27;5.30;;;;;;;;;;5121742;27;20209;-71
2022/03/04 06:28:09;;;;;;;5.60;5.10;;;;;;;;;;5121985;27;20216;-71
2022/03/04 06:30:56;;;;;;;6.67;5.37;;;;;;;;;;5125433;27;20239;-71
2022/03/04 06:33:44;;;;;;;6.77;5.37;;;;;;;;;;5122003;27;20286;-71
2022/03/04 06:36:31;;;;;;;5.67;5.13;;;;;;;;;;5119093;27;20325;-71
2022/03/04 06:39:18;;;;;;;5.67;4.80;;;;;;;;;;5121706;27;20203;-71
2022/03/04 06:42:05;;;;;;;5.60;5.00;;;;;;;;;;5119642;27;20797;-71
2022/03/04 06:44:52;;;;;;;5.63;5.13;;;;;;;;;;5118694;27;20243;-71
2022/03/04 06:47:38;;;;;;;5.63;5.03;;;;;;;;;;5120136;27;20211;-71
2022/03/04 06:50:27;;;;;;;6.63;5.17;;;;;;;;;;5119833;27;20315;-71
2022/03/04 06:53:14;;;;;;;5.13;4.63;;;;;;;;;;5121225;27;20224;-71
2022/03/04 06:56:01;;;;;;;4.83;4.40;;;;;;;;;;5122355;27;20226;-71
2022/03/04 06:58:48;;;;;;;4.50;4.10;;;;;;;;;;5117752;27;20270;-71
2022/03/04 07:01:35;;;;;;;3.93;3.53;;;;;;;;;;5121441;27;20280;-71
2022/03/04 07:04:22;;;;;;;4.57;3.50;;;;;;;;;;5123458;27;20338;-70
2022/03/04 07:07:10;;;;;;;4.57;4.17;;;;;;;;;;5121867;27;20210;-71
2022/03/04 07:09:57;;;;;;;4.40;4.00;;;;;;;;;;5119838;27;20270;-71
2022/03/04 07:12:44;;;;;;;4.60;3.57;;;;;;;;;;5121775;27;20700;-71
2022/03/04 07:15:31;;;;;;;4.30;3.90;;;;;;;;;;5119319;27;20736;-69
2022/03/04 07:18:18;;;;;;;3.60;3.30;;;;;;;;;;5118831;27;20225;-69
2022/03/04 07:21:05;;;;;;;4.00;3.70;;;;;;;;;;5119523;27;20231;-69
2022/03/04 07:23:54;;;;;;;4.38;3.92;;;;;;;;;;5121638;27;20241;-69
2022/03/04 07:26:41;;;;;;;4.93;4.53;;;;;;;;;;5122482;27;20286;-69
2022/03/04 07:29:28;;;;;;;5.15;4.63;;;;;;;;;;5118750;27;20291;-70
2022/03/04 07:32:15;;;;;;;5.82;5.13;;;;;;;;;;5117344;27;20298;-70
2022/03/04 07:35:03;;;;;;;5.85;5.00;;;;;;;;;;5122809;27;20610;-68
2022/03/04 07:37:50;;;;;;;6.60;5.15;;;;;;;;;;5120449;27;20219;-68
2022/03/04 07:40:39;;;;;;;6.25;5.63;;;;;;;;;;5119852;27;20262;-69
2022/03/04 07:43:26;;;;;;;8.07;6.00;;;;;;;;;;5121772;27;20685;-70
2022/03/04 07:46:13;;;;;;;7.22;6.05;;;;;;;;;;5119491;27;20209;-70
2022/03/04 07:49:00;;;;;;;7.38;5.75;;;;;;;;;;5115618;27;20210;-70
2022/03/04 07:51:47;;;;;;;8.65;6.22;;;;;;;;;;5117198;27;20307;-70
2022/03/04 07:54:34;;;;;;;7.05;5.78;;;;;;;;;;5120219;27;20325;-69
2022/03/04 07:57:22;;;;;;;6.93;5.80;;;;;;;;;;5119441;27;20244;-70
2022/03/04 08:00:11;;;;;;;5.88;5.28;;;;;;;;;;5122327;27;20596;-70
2022/03/04 08:02:59;;;;;;;6.97;5.78;;;;;;;;;;5118279;27;20705;-70
2022/03/04 08:05:46;;;;;;;5.97;5.38;;;;;;;;;;5118888;27;20204;-70
2022/03/04 08:08:34;;;;;;;7.30;5.18;;;;;;;;;;5117312;27;20675;-70
2022/03/04 08:11:21;;;;;;;6.23;4.87;;;;;;;;;;5116692;27;20335;-71
2022/03/04 08:14:09;;;;;;;5.27;4.77;;;;;;;;;;5116710;27;20212;-71
2022/03/04 08:16:56;;;;;;;5.47;4.33;;;;;;;;;;5119414;27;20215;-71
2022/03/04 08:19:43;;;;;;;5.00;4.50;;;;;;;;;;5116054;27;20289;-72
2022/03/04 08:22:30;;;;;;;4.80;4.30;;;;;;;;;;5119669;27;20207;-71
2022/03/04 08:25:17;;;;;;;4.53;4.07;;;;;;;;;;5118053;27;20212;-71
2022/03/04 08:28:04;;;;;;;4.97;3.90;;;;;;;;;;5120334;27;20205;-71
2022/03/04 08:30:53;;;;;;;4.03;3.63;;;;;;;;;;5117908;28;20202;-71
2022/03/04 08:33:41;;;;;;;4.43;3.53;;;;;;;;;;5116454;28;20257;-71
2022/03/04 08:36:28;;;;;;;4.00;3.60;;;;;;;;;;5122974;28;20206;-71
2022/03/04 08:39:15;;;;;;;3.97;3.57;;;;;;;;;;5118447;28;20425;-72
2022/03/04 08:42:02;;;;;;;3.10;2.90;;;;;;;;;;5123373;28;20361;-71
2022/03/04 08:44:49;;;;;;;3.30;3.03;;;;;;;;;;5123166;28;20655;-71
2022/03/04 08:47:38;;;;;;;3.63;3.33;;;;;;;;;;5120889;28;20597;-71
2022/03/04 08:50:25;;;;;;;3.00;2.80;;;;;;;;;;5120041;28;20581;-71
2022/03/04 08:53:12;;;;;;;3.17;2.97;;;;;;;;;;5118551;28;20712;-71
2022/03/04 08:55:59;;;;;;;2.93;2.73;;;;;;;;;;5118873;28;20713;-71
2022/03/04 08:58:46;;;;;;;2.80;2.60;;;;;;;;;;5118888;28;20288;-71
2022/03/04 09:01:33;;;;;;;2.70;2.50;;;;;;;;;;5119870;28;20286;-71
2022/03/04 09:04:21;;;;;;;2.47;2.27;;;;;;;;;;5117609;28;20232;-71
2022/03/04 09:07:08;;;;;;;2.80;2.57;;;;;;;;;;5117089;28;20233;-72
2022/03/04 09:09:55;;;;;;;2.50;2.30;;;;;;;;;;5116246;28;20552;-71
2022/03/04 09:12:42;;;;;;;2.33;2.20;;;;;;;;;;5120549;28;20241;-71
2022/03/04 09:15:29;;;;;;;2.40;2.30;;;;;;;;;;5117928;28;20294;-71
2022/03/04 09:18:16;;;;;;;2.30;2.10;;;;;;;;;;5118214;28;20733;-71
2022/03/04 09:21:04;;;;;;;2.57;2.37;;;;;;;;;;5119956;28;20199;-71
2022/03/04 09:23:51;;;;;;;2.73;1.97;;;;;;;;;;5123853;28;20280;-71
2022/03/04 09:26:38;;;;;;;2.33;2.07;;;;;;;;;;5119112;28;20286;-71
2022/03/04 09:29:25;;;;;;;1.90;1.80;;;;;;;;;;5121207;28;20214;-71
2022/03/04 09:32:12;;;;;;;1.83;1.73;;;;;;;;;;5117596;28;20628;-71
2022/03/04 09:34:59;;;;;;;2.13;1.80;;;;;;;;;;5122771;27;20306;-71
2022/03/04 09:37:48;;;;;;;2.00;1.67;;;;;;;;;;5124894;27;20332;-71
2022/03/04 09:40:35;;;;;;;1.83;1.73;;;;;;;;;;5122467;27;20271;-70
2022/03/04 09:43:22;;;;;;;1.70;1.60;;;;;;;;;;5123473;27;20247;-71
2022/03/04 09:46:09;;;;;;;1.47;1.37;;;;;;;;;;5124278;27;20618;-71
2022/03/04 09:48:56;;;;;;;1.63;1.53;;;;;;;;;;5122847;27;20801;-71
2022/03/04 09:51:43;;;;;;;1.50;1.37;;;;;;;;;;5123091;27;20214;-71
2022/03/04 09:54:32;;;;;;;1.43;1.33;;;;;;;;;;5123416;27;20305;-72
2022/03/04 09:57:20;;;;;;;1.50;1.40;;;;;;;;;;5122357;27;20253;-71
2022/03/04 10:00:11;;;;;;;1.33;1.23;;;;;;;;;;5122788;27;20215;-71
2022/03/04 10:02:58;;;;;;;1.30;1.17;;;;;;;;;;5120802;27;20214;-71
2022/03/04 10:05:52;;;;;;;1.90;1.20;;;;;;;;;;5120367;27;20207;-71
2022/03/04 10:08:39;;;;;;;1.43;1.33;;;;;;;;;;5122245;27;20244;-71
2022/03/04 10:11:30;;;;;;;1.63;1.20;;;;;;;;;;5121313;27;20305;-71
2022/03/04 10:14:17;;;;;;;1.50;0.97;;;;;;;;;;5120466;27;20208;-71
2022/03/04 10:17:05;;;;;;;1.53;1.10;;;;;;;;;;5120080;27;20199;-71
2022/03/04 10:19:53;;;;;;;1.13;1.03;;;;;;;;;;5119733;27;20235;-71
2022/03/04 10:22:44;;;;;;;0.77;0.77;;;;;;;;;;5123566;27;20203;-70
2022/03/04 10:25:31;;;;;;;0.70;0.67;;;;;;;;;;5120592;27;20220;-71
2022/03/04 10:28:23;;;;;;;0.90;0.90;;;;;;;;;;5123779;27;20261;-71
2022/03/04 10:31:10;;;;;;;1.07;0.97;;;;;;;;;;5120511;27;20232;-71
2022/03/04 10:34:07;;;;;;;0.77;0.70;;;;;;;;;;5122179;27;20314;-71
2022/03/04 10:36:55;;;;;;;1.00;1.00;;;;;;;;;;5119897;27;20208;-71
2022/03/04 10:39:57;;;;;;;1.00;0.83;;;;;;;;;;5120424;27;20204;-70
2022/03/04 10:42:51;;;;;;;0.63;0.63;;;;;;;;;;5121095;27;20364;-70
2022/03/04 10:45:41;;;;;;;0.80;0.80;;;;;;;;;;5120438;27;20204;-71
2022/03/04 10:48:29;;;;;;;0.60;0.60;;;;;;;;;;5120291;27;20211;-70
2022/03/04 10:51:16;;;;;;;1.23;0.80;;;;;;;;;;5121460;27;20528;-70
2022/03/04 10:54:17;;;;;;;0.50;0.50;;;;;;;;;;5120745;27;20288;-70
2022/03/04 10:57:04;;;;;;;0.60;0.57;;;;;;;;;;5117951;27;20212;-71
2022/03/04 10:59:58;;;;;;;0.70;0.50;;;;;;;;;;5119674;27;20579;-71
2022/03/04 11:02:46;;;;;;;0.60;0.60;;;;;;;;;;5121199;27;20296;-71
2022/03/04 11:05:34;;;;;;;1.07;0.40;;;;;;;;;;5122013;27;20263;-70
2022/03/04 11:08:21;;;;;;;0.53;0.53;;;;;;;;;;5120959;27;20243;-71
2022/03/04 11:11:08;;;;;;;0.80;0.60;;;;;;;;;;5118394;27;20205;-71
2022/03/04 11:13:58;;;;;;;0.50;0.50;;;;;;;;;;5123238;27;20247;-71
2022/03/04 11:16:45;;;;;;;0.50;0.50;;;;;;;;;;5117118;27;20221;-69
2022/03/04 11:19:35;;;;;;;0.40;0.40;;;;;;;;;;5122364;27;20242;-70
2022/03/04 11:22:22;;;;;;;0.37;0.30;;;;;;;;;;5120517;27;20260;-70
2022/03/04 11:25:12;;;;;;;0.47;0.43;;;;;;;;;;5125420;27;20249;-70
2022/03/04 11:28:09;;;;;;;0.40;0.40;;;;;;;;;;5123157;27;20216;-71
2022/03/04 11:31:00;;;;;;;0.40;0.40;;;;;;;;;;5118394;27;20275;-71
2022/03/04 11:33:52;;;;;;;0.40;0.40;;;;;;;;;;5117623;27;20224;-71
2022/03/04 11:36:40;;;;;;;0.80;0.70;;;;;;;;;;5121922;27;20657;-71
2022/03/04 11:39:27;;;;;;;0.30;0.30;;;;;;;;;;5119302;27;20218;-71
2022/03/04 11:42:15;;;;;;;0.50;0.47;;;;;;;;;;5123524;27;20282;-71
2022/03/04 11:45:03;;;;;;;0.50;0.47;;;;;;;;;;5118928;27;20664;-71
2022/03/04 11:48:03;;;;;;;0.40;0.40;;;;;;;;;;5122378;27;20282;-70
2022/03/04 11:50:52;;;;;;;0.40;0.40;;;;;;;;;;5121579;27;20311;-71
2022/03/04 11:53:40;;;;;;;0.40;0.40;;;;;;;;;;5122145;27;20732;-70
2022/03/04 11:56:27;;;;;;;0.90;0.33;;;;;;;;;;5122279;27;20219;-71
2022/03/04 11:59:19;;;;;;;0.70;0.20;;;;;;;;;;5119716;27;20206;-71
2022/03/04 12:02:08;;;;;;;0.43;0.43;;;;;;;;;;5122462;27;20242;-71
2022/03/04 12:05:25;;;;;;;0.30;0.30;;;;;;;;;;5117207;27;20559;-71
2022/03/04 12:08:14;;;;;;;0.50;0.40;;;;;;;;;;5119356;27;20201;-71
2022/03/04 12:11:02;;;;;;;0.20;0.20;;;;;;;;;;5118185;27;20207;-71
2022/03/04 12:13:49;;;;;;;1.13;0.70;;;;;;;;;;5118408;27;20262;-71
2022/03/04 12:16:48;;;;;;;1.40;0.60;;;;;;;;;;5116508;27;20246;-72
2022/03/04 12:19:36;;;;;;;0.33;0.23;;;;;;;;;;5114900;27;20205;-71
2022/03/04 12:22:25;;;;;;;0.77;0.27;;;;;;;;;;5122440;27;20269;-71
2022/03/04 12:25:12;;;;;;;0.50;0.33;;;;;;;;;;5119791;27;20739;-71
2022/03/04 12:28:13;;;;;;;0.30;0.30;;;;;;;;;;5122706;27;20694;-70
2022/03/04 12:31:15;;;;;;;0.93;0.27;;;;;;;;;;5119848;27;20295;-71
2022/03/04 12:34:02;;;;;;;0.37;0.30;;;;;;;;;;5120667;27;20246;-70
2022/03/04 12:36:52;;;;;;;0.30;0.30;;;;;;;;;;5118346;27;20285;-71
2022/03/04 12:39:39;;;;;;;0.40;0.40;;;;;;;;;;5118891;28;20210;-71
2022/03/04 12:42:26;;;;;;;0.50;0.23;;;;;;;;;;5125490;28;20239;-70
2022/03/04 12:45:14;;;;;;;0.33;0.33;;;;;;;;;;5120490;28;20206;-70
2022/03/04 12:48:01;;;;;;;0.47;0.43;;;;;;;;;;5117488;28;20210;-72
2022/03/04 12:50:49;;;;;;;0.23;0.20;;;;;;;;;;5117655;28;20662;-71
2022/03/04 12:53:35;;;;;;;0.30;0.30;;;;;;;;;;5119097;28;20283;-71
2022/03/04 12:56:23;;;;;;;0.40;0.40;;;;;;;;;;5118480;28;21560;-71
2022/03/04 12:59:10;;;;;;;0.80;0.40;;;;;;;;;;5118120;28;20213;-71
2022/03/04 13:01:59;;;;;;;0.67;0.13;;;;;;;;;;5120161;28;20585;-71
2022/03/04 13:04:57;;;;;;;0.33;0.30;;;;;;;;;;5117341;28;20224;-71
2022/03/04 13:07:44;;;;;;;0.20;0.20;;;;;;;;;;5120798;28;20212;-70
2022/03/04 13:10:33;;;;;;;0.30;0.30;;;;;;;;;;5119534;27;20257;-70
2022/03/04 13:13:20;;;;;;;0.60;0.33;;;;;;;;;;5123728;27;20616;-71
2022/03/04 13:16:07;;;;;;;0.33;0.20;;;;;;;;;;5121056;27;20258;-71
2022/03/04 13:18:57;;;;;;;0.37;0.37;;;;;;;;;;5121404;27;20241;-71
2022/03/04 13:21:46;;;;;;;0.30;0.30;;;;;;;;;;5123809;27;20216;-71
2022/03/04 13:24:35;;;;;;;0.30;0.30;;;;;;;;;;5123836;27;20724;-71
2022/03/04 13:27:22;;;;;;;0.30;0.30;;;;;;;;;;5120769;27;20210;-71
2022/03/04 13:30:10;;;;;;;0.30;0.30;;;;;;;;;;5126539;27;20209;-71
2022/03/04 13:32:57;;;;;;;0.40;0.20;;;;;;;;;;5124484;27;20605;-71
2022/03/04 13:35:50;;;;;;;0.40;0.40;;;;;;;;;;5119546;27;20197;-71
2022/03/04 13:38:40;;;;;;;0.63;0.40;;;;;;;;;;5122943;27;20257;-71
2022/03/04 13:41:27;;;;;;;0.37;0.30;;;;;;;;;;5122043;27;20205;-70
2022/03/04 13:44:15;;;;;;;3.00;0.47;;;;;;;;;;5121904;27;20206;-70
2022/03/04 13:47:05;;;;;;;0.50;0.40;;;;;;;;;;5122647;27;20682;-71
2022/03/04 13:49:52;;;;;;;0.73;0.67;;;;;;;;;;5121171;27;20244;-70
2022/03/04 13:52:52;;;;;;;0.33;0.33;;;;;;;;;;5125174;27;20277;-75
2022/03/04 13:55:41;;;;;;;0.60;0.60;;;;;;;;;;5117101;27;20212;-71
2022/03/04 13:58:30;;;;;;;0.50;0.50;;;;;;;;;;5124171;27;20585;-71
2022/03/04 14:01:21;;;;;;;1.30;0.80;;;;;;;;;;5115689;27;20253;-70
2022/03/04 14:04:11;;;;;;;0.43;0.43;;;;;;;;;;5122600;27;20701;-70
2022/03/04 14:06:58;;;;;;;1.17;0.70;;;;;;;;;;5120153;27;20232;-71
2022/03/04 14:09:48;;;;;;;0.63;0.63;;;;;;;;;;5121657;27;20255;-70
2022/03/04 14:12:35;;;;;;;0.50;0.50;;;;;;;;;;5120791;27;20212;-70
2022/03/04 14:15:22;;;;;;;0.37;0.37;;;;;;;;;;5121464;27;20871;-70
2022/03/04 14:18:11;;;;;;;0.50;0.50;;;;;;;;;;5122747;27;20290;-71
2022/03/04 14:21:03;;;;;;;0.63;0.60;;;;;;;;;;5126161;27;20255;-70
2022/03/04 14:23:50;;;;;;;0.40;0.40;;;;;;;;;;5123811;27;20206;-71
2022/03/04 14:26:38;;;;;;;0.60;0.60;;;;;;;;;;5120742;27;20677;-71
2022/03/04 14:29:25;;;;;;;0.60;0.60;;;;;;;;;;5117716;27;20639;-71
2022/03/04 14:32:12;;;;;;;0.50;0.50;;;;;;;;;;5121873;27;20294;-70
2022/03/04 14:34:59;;;;;;;1.93;0.50;;;;;;;;;;5120717;27;20224;-70
2022/03/04 14:37:46;;;;;;;0.53;0.50;;;;;;;;;;5118173;27;20207;-70
2022/03/04 14:40:34;;;;;;;0.40;0.40;;;;;;;;;;5120493;27;20292;-70
2022/03/04 14:43:24;;;;;;;0.50;0.50;;;;;;;;;;5122479;27;20275;-71
2022/03/04 14:46:11;;;;;;;0.30;0.30;;;;;;;;;;5123934;27;20646;-70
2022/03/04 14:48:58;;;;;;;0.57;0.47;;;;;;;;;;5120919;27;20219;-70
2022/03/04 14:51:45;;;;;;;0.30;0.30;;;;;;;;;;5118354;27;20294;-71
2022/03/04 14:54:33;;;;;;;0.97;0.67;;;;;;;;;;5120292;27;20226;-71
2022/03/04 14:57:20;;;;;;;0.57;0.40;;;;;;;;;;5119016;27;20209;-70
2022/03/04 15:00:11;;;;;;;0.60;0.53;;;;;;;;;;5119819;27;20263;-71
2022/03/04 15:02:58;;;;;;;0.30;0.23;;;;;;;;;;5119481;27;20218;-70
2022/03/04 15:05:45;;;;;;;1.00;0.50;;;;;;;;;;5123386;27;20216;-71
2022/03/04 15:08:32;;;;;;;0.40;0.40;;;;;;;;;;5119589;27;20207;-70
2022/03/04 15:11:19;;;;;;;0.50;0.50;;;;;;;;;;5119807;27;20280;-71
2022/03/04 15:14:06;;;;;;;1.60;0.50;;;;;;;;;;5123595;27;20225;-71
2022/03/04 15:17:02;;;;;;;0.93;0.50;;;;;;;;;;5120006;27;20682;-70
2022/03/04 15:19:49;;;;;;;0.33;0.30;;;;;;;;;;5118303;27;20290;-70
2022/03/04 15:22:36;;;;;;;2.80;0.60;;;;;;;;;;5120915;27;20236;-70
2022/03/04 15:25:24;;;;;;;0.50;0.50;;;;;;;;;;5119216;27;20556;-71
2022/03/04 15:28:11;;;;;;;0.30;0.30;;;;;;;;;;5120470;27;20229;-71
2022/03/04 15:30:58;;;;;;;0.30;0.30;;;;;;;;;;5120622;27;20301;-71
2022/03/04 15:33:46;;;;;;;0.57;0.30;;;;;;;;;;5120979;27;20252;-67
2022/03/04 15:36:33;;;;;;;1.23;0.47;;;;;;;;;;5121192;27;20217;-66
2022/03/04 15:39:20;;;;;;;1.13;0.50;;;;;;;;;;5119522;27;20213;-67
2022/03/04 15:42:08;;;;;;;1.03;0.53;;;;;;;;;;5119434;27;20700;-67
2022/03/04 15:44:56;;;;;;;1.30;0.63;;;;;;;;;;5120438;27;20197;-67
2022/03/04 15:47:43;;;;;;;1.13;0.40;;;;;;;;;;5120019;27;20686;-67
2022/03/04 15:50:32;;;;;;;0.30;0.30;;;;;;;;;;5121376;27;20300;-67
2022/03/04 15:53:19;;;;;;;0.73;0.50;;;;;;;;;;5118114;27;20218;-67
2022/03/04 15:56:06;;;;;;;0.70;0.47;;;;;;;;;;5122939;27;20654;-67
2022/03/04 15:58:53;;;;;;;0.73;0.47;;;;;;;;;;5119997;27;20209;-66
2022/03/04 16:01:41;;;;;;;0.40;0.40;;;;;;;;;;5122158;27;20222;-67
2022/03/04 16:04:27;;;;;;;0.37;0.37;;;;;;;;;;5117635;27;20208;-67
2022/03/04 16:07:17;;;;;;;0.43;0.37;;;;;;;;;;5120564;27;20294;-67
2022/03/04 16:10:05;;;;;;;0.30;0.30;;;;;;;;;;5121489;27;20212;-67
2022/03/04 16:12:52;;;;;;;0.30;0.30;;;;;;;;;;5120378;27;20379;-67
2022/03/04 16:15:39;;;;;;;0.40;0.40;;;;;;;;;;5116731;27;20773;-67
2022/03/04 16:18:26;;;;;;;0.30;0.30;;;;;;;;;;5121277;27;20214;-67
2022/03/04 16:21:14;;;;;;;0.90;0.50;;;;;;;;;;5120705;27;20246;-68
2022/03/04 16:24:04;;;;;;;0.47;0.30;;;;;;;;;;5119815;27;20207;-67
2022/03/04 16:26:51;;;;;;;0.30;0.30;;;;;;;;;;5120069;27;20212;-67
2022/03/04 16:29:38;;;;;;;0.70;0.30;;;;;;;;;;5121363;27;20743;-67
2022/03/04 16:32:26;;;;;;;0.80;0.47;;;;;;;;;;5120578;27;20203;-68
2022/03/04 16:35:13;;;;;;;0.93;0.40;;;;;;;;;;5118198;27;20231;-67
2022/03/04 16:38:00;;;;;;;0.60;0.43;;;;;;;;;;5118231;28;20668;-67
2022/03/04 16:40:49;;;;;;;0.37;0.30;;;;;;;;;;5120482;28;20207;-68
2022/03/04 16:43:36;;;;;;;0.70;0.30;;;;;;;;;;5121475;28;20233;-67
2022/03/04 16:46:25;;;;;;;0.20;0.20;;;;;;;;;;5124693;27;20281;-67